Spokane International Airport Spokane US
ICAO: KGEG
IATA: GEG
Category: Large
Scheduled Services: Yes

Elevation: 2376 ft
TransAlt. 18000 ft.

Airport Communications:
APP/DEP:123.75
ATIS:124.325
CLNC DEL:127.55
GND:121.9
ARNG:38.75
SEATTLE RDO:122.2
TWR:118.3
UNICOM:122.95

KGEG Zoom In..

If you have problems with the map follow the link
https://www.worldairports.se/pages/airport.php?
ICAO=KGEG

Runways:

(A) RW 03 length 11002 ft width 150 ft
ILS 111.10 / hdg 27

(B) RW 07 length 8199 ft width 150 ft
---- / hdg 72

(C) RW 21 length 11002 ft width 150 ft
ILS 111.10 / hdg 207

(D) RW 25 length 8199 ft width 150 ft
---- / hdg 252

Location; KGEG
Day. 14 / Time. 15.25 Zulu
* Altimeter: 29.91
* Temperature: 00° c. 32°f.
* Wind from: 240° Speed 05 kn.
Dewpoint: -02° c.
Visibility: 10 Statute Miles.
Clouds: Broken 700 ft.
Clouds: Overcast 1500 ft.

KGEG 141525Z 24005KT 10SM BKN007 OVC015 00/M02 A2991 RMK AO2 T00001017


Wind From 240°
Speed 05 kn.

 
 
jpsmedia worldairports.se 2019   terms of use